Latest Weather Observations for Rhyll

IDV60801

Issued at 12:32 pm EST Saturday 2 July 2022 (issued every 10 minutes, with the page automatically refreshed every 10 minutes)

About weather observations | Map of weather stations | Latest weather observations for VIC | Other Formats
Station Details ID: 086373 Name: RHYLL Lat: -38.46 Lon: 145.31 Height: 13.4 m
Data from the previous 72 hours. | See also: Recent months at Rhyll
Date/Time
EST
Temp
°C
App
Temp
°C
Dew
Point
°C
Rel
Hum
%
Delta-T
°C
Wind Press
QNH
hPa
Press
MSL
hPa
Rain since
9am
mm
Dir  Spd
km/h
Gust
km/h
Spd
kts
Gust
kts
02/12:30pm 12.3 11.2 8.6 78 1.8 S 4 7 2 4 1030.3 1030.3 0.6
02/12:00pm 11.7 11.0 8.6 81 1.5 ESE 2 4 1 2 1030.8 1030.8 0.6
02/11:30am 11.0 10.7 8.8 86 1.1 CALM 0 0 0 0 1031.1 1031.1 0.6
02/11:00am 10.7 10.5 9.0 89 0.8 CALM 0 0 0 0 1031.3 1031.3 0.6
02/10:30am 10.6 8.3 9.0 90 0.8 E 11 13 6 7 1031.4 1031.4 0.6
02/10:00am 10.3 10.0 8.7 90 0.8 CALM 0 2 0 1 1031.2 1031.2 0.6
02/09:30am 9.6 7.5 8.2 91 0.7 ESE 9 13 5 7 1031.1 1031.1 0.0
02/09:00am 10.0 8.4 8.8 92 0.6 E 7 13 4 7 1030.9 1030.9 3.6
02/08:30am 9.7 8.1 8.1 90 0.8 S 6 7 3 4 1030.7 1030.7 3.6
02/08:00am 9.8 8.2 8.2 90 0.8 S 6 13 3 7 1030.8 1030.8 3.6
02/07:30am 9.6 8.1 8.4 92 0.6 S 6 9 3 5 1030.5 1030.5 3.6
02/07:00am 9.7 8.2 8.6 93 0.5 S 6 9 3 5 1030.4 1030.4 3.6
02/06:30am 9.8 8.2 8.6 92 0.6 S 7 11 4 6 1030.2 1030.2 3.6
02/06:00am 9.5 7.9 8.1 91 0.7 SSE 6 7 3 4 1030.1 1030.1 3.4
02/05:30am 9.6 7.5 8.2 91 0.7 SSE 9 15 5 8 1030.0 1030.0 3.4
02/05:00am 9.6 8.0 8.2 91 0.7 SSE 6 7 3 4 1030.0 1030.0 3.4
02/04:30am 9.7 8.0 8.3 91 0.7 SE 7 11 4 6 1030.1 1030.1 3.4
02/04:00am 9.5 8.6 7.8 89 0.8 S 2 6 1 3 1030.3 1030.3 3.4
02/03:30am 9.1 8.5 7.5 90 0.8 CALM 0 0 0 0 1030.4 1030.4 3.4
02/03:00am 9.2 8.6 7.6 90 0.8 CALM 0 0 0 0 1030.6 1030.6 3.4
02/02:30am 9.2 8.6 7.5 89 0.8 CALM 0 4 0 2 1030.7 1030.7 3.4
02/02:00am 9.2 8.6 7.3 88 0.9 CALM 0 0 0 0 1030.7 1030.7 3.4
02/01:30am 9.2 7.8 7.3 88 0.9 S 4 7 2 4 1030.8 1030.8 3.4
02/01:00am 8.9 7.5 7.4 90 0.7 SSW 4 6 2 3 1030.8 1030.8 3.4
02/12:30am 8.4 6.4 7.0 91 0.7 SSE 7 9 4 5 1030.9 1030.9 3.4
02/12:00am 8.1 6.2 6.6 90 0.7 SSE 6 7 3 4 1031.0 1031.0 3.4
 
Date/Time
EST
Temp
°C
App
Temp
°C
Dew
Point
°C
Rel
Hum
%
Delta-T
°C
Wind Press
QNH
hPa
Press
MSL
hPa
Rain since
9am
mm
Dir  Spd
km/h
Gust
km/h
Spd
kts
Gust
kts
01/11:30pm 8.8 7.0 7.1 89 0.8 S 6 7 3 4 1030.9 1030.9 3.4
01/11:00pm 9.0 6.9 6.6 85 1.1 SSW 7 11 4 6 1031.0 1031.0 3.4
01/10:30pm 9.2 7.2 7.0 86 1.0 SSW 7 11 4 6 1031.1 1031.1 3.4
01/10:00pm 9.2 7.4 7.0 86 1.0 S 6 7 3 4 1031.2 1031.2 3.4
01/09:30pm 9.6 7.6 7.2 85 1.1 S 7 15 4 8 1031.2 1031.2 3.4
01/09:00pm 10.0 7.7 7.3 83 1.3 SSW 9 13 5 7 1031.2 1031.2 3.4
01/08:30pm 10.0 7.2 7.1 82 1.4 SSW 11 17 6 9 1031.2 1031.2 3.4
01/08:00pm 10.2 7.1 7.1 81 1.5 SSW 13 19 7 10 1031.0 1031.0 3.4
01/07:30pm 10.1 7.8 7.3 83 1.3 SSW 9 15 5 8 1031.0 1031.0 3.4
01/07:00pm 10.1 7.1 7.5 84 1.2 SSW 13 22 7 12 1030.8 1030.8 3.4
01/06:30pm 10.0 7.0 7.6 85 1.1 S 13 22 7 12 1030.6 1030.6 3.4
01/06:00pm 10.0 6.7 8.1 88 0.9 SSW 15 22 8 12 1030.3 1030.3 3.4
01/05:30pm 10.0 8.3 8.4 90 0.8 SW 7 13 4 7 1030.1 1030.1 3.4
01/05:00pm 10.2 8.4 9.3 94 0.4 SW 9 15 5 8 1029.9 1029.9 3.2
01/04:30pm 10.4 8.6 9.5 94 0.5 SW 9 15 5 8 1029.8 1029.8 2.8
01/04:00pm 10.5 9.3 9.6 94 0.4 WSW 6 7 3 4 1029.8 1029.8 2.8
01/03:30pm 10.6 9.8 9.8 95 0.4 WSW 4 6 2 3 1029.9 1029.9 2.8
01/03:00pm 10.4 9.6 9.6 95 0.4 SW 4 6 2 3 1029.8 1029.8 2.4
01/02:30pm 10.5 10.1 9.9 96 0.3 SW 2 4 1 2 1029.8 1029.8 2.0
01/02:00pm 10.2 10.1 9.6 96 0.3 CALM 0 2 0 1 1030.0 1030.0 1.6
01/01:30pm 10.0 9.5 9.4 96 0.3 W 2 2 1 1 1030.1 1030.1 1.0
01/01:00pm 9.6 9.0 9.0 96 0.3 NW 2 4 1 2 1030.3 1030.3 0.8
01/12:30pm 9.3 8.2 8.5 95 0.4 NNW 4 6 2 3 1030.5 1030.5 0.2
01/12:00pm 9.4 8.3 8.6 95 0.4 N 4 6 2 3 1030.7 1030.7 0.0
01/11:30am 9.2 8.4 8.3 94 0.4 N 2 6 1 3 1030.9 1030.9 0.0
01/11:00am 9.0 7.8 8.2 95 0.4 N 4 6 2 3 1031.0 1031.0 0.0
01/10:30am 8.6 7.3 7.8 95 0.4 NNW 4 6 2 3 1031.0 1031.0 0.0
01/10:00am 8.5 8.0 7.7 95 0.4 CALM 0 4 0 2 1030.9 1030.9 0.0
01/09:30am 8.2 5.5 7.4 95 0.4 ENE 11 13 6 7 1030.7 1030.7 0.0
01/09:00am 8.2 5.5 7.4 95 0.4 ENE 11 13 6 7 1030.6 1030.6 1.0
01/08:30am 8.8 8.3 8.0 95 0.4 CALM 0 0 0 0 1030.4 1030.4 1.0
01/08:00am 8.6 8.1 7.8 95 0.4 CALM 0 0 0 0 1030.1 1030.1 1.0
01/07:30am 8.6 8.1 7.8 95 0.4 CALM 0 2 0 1 1029.9 1029.9 1.0
01/07:00am 8.9 8.5 8.1 95 0.4 CALM 0 0 0 0 1029.7 1029.7 1.0
01/06:30am 8.9 8.5 8.1 95 0.4 CALM 0 0 0 0 1029.4 1029.4 1.0
01/06:00am 8.9 7.8 8.3 96 0.3 NE 4 7 2 4 1029.2 1029.2 1.0
01/05:30am 8.8 7.0 8.0 95 0.4 NE 7 9 4 5 1028.9 1028.9 1.0
01/05:00am 8.6 6.8 7.8 95 0.4 ENE 7 9 4 5 1028.7 1028.7 1.0
01/04:30am 8.8 7.6 8.0 95 0.4 ENE 4 6 2 3 1028.5 1028.5 1.0
01/04:00am 8.9 7.1 8.1 95 0.4 E 7 9 4 5 1028.6 1028.6 0.8
01/03:30am 9.2 7.7 8.4 95 0.4 ENE 6 7 3 4 1028.5 1028.5 0.6
01/03:00am 9.3 7.8 8.5 95 0.4 ENE 6 9 3 5 1028.5 1028.5 0.6
01/02:30am 9.3 7.3 8.5 95 0.4 ENE 9 11 5 6 1028.6 1028.6 0.6
01/02:00am 9.3 7.3 8.5 95 0.4 ENE 9 11 5 6 1028.4 1028.4 0.6
01/01:30am 9.3 8.9 8.4 94 0.4 CALM 0 4 0 2 1028.4 1028.4 0.6
01/01:00am 9.2 8.8 8.3 94 0.4 CALM 0 4 0 2 1028.4 1028.4 0.6
01/12:30am 9.4 8.7 8.5 94 0.4 SSE 2 4 1 2 1028.4 1028.4 0.6
01/12:00am 9.3 8.5 8.2 93 0.5 E 2 6 1 3 1028.4 1028.4 0.6
 
Date/Time
EST
Temp
°C
App
Temp
°C
Dew
Point
°C
Rel
Hum
%
Delta-T
°C
Wind Press
QNH
hPa
Press
MSL
hPa
Rain since
9am
mm
Dir  Spd
km/h
Gust
km/h
Spd
kts
Gust
kts
30/11:30pm 9.5 9.1 8.4 93 0.5 CALM 0 0 0 0 1028.3 1028.3 0.0
30/11:00pm 9.2 8.8 8.1 93 0.5 CALM 0 0 0 0 1028.2 1028.2 0.0
30/10:30pm 9.0 8.1 7.9 93 0.5 NNW 2 4 1 2 1028.0 1028.0 0.0
30/10:00pm 9.0 7.4 7.9 93 0.5 N 6 7 3 4 1027.8 1027.8 0.0
30/09:30pm 8.9 8.4 7.7 92 0.6 CALM 0 0 0 0 1027.8 1027.8 0.0
30/09:00pm 9.5 7.8 8.3 92 0.6 NW 7 7 4 4 1027.5 1027.5 0.0
30/08:30pm 9.7 8.0 8.3 91 0.7 NNW 7 9 4 5 1027.3 1027.3 0.0
30/08:00pm 10.2 8.8 8.8 91 0.7 NW 6 7 3 4 1027.1 1027.1 0.0
30/07:30pm 10.2 9.1 8.3 88 0.9 NNW 4 6 2 3 1026.9 1026.9 0.0
30/07:00pm 10.3 9.1 8.2 87 1.0 WSW 4 6 2 3 1026.7 1026.7 0.0
30/06:30pm 10.5 9.3 8.1 85 1.2 WSW 4 6 2 3 1026.4 1026.4 0.0
30/06:00pm 10.3 9.0 7.7 84 1.2 WSW 4 7 2 4 1026.1 1026.1 0.0
30/05:30pm 10.7 9.3 7.4 80 1.6 SW 4 6 2 3 1025.8 1025.8 0.0
30/05:00pm 11.0 9.6 7.1 77 1.8 SW 4 6 2 3 1025.4 1025.4 0.0
30/04:30pm 11.6 9.8 7.3 75 2.1 SW 6 7 3 4 1025.3 1025.3 0.0
30/04:00pm 12.8 11.3 8.5 75 2.1 SSE 6 9 3 5 1025.2 1025.2 0.0
30/03:30pm 13.1 12.1 8.8 75 2.2 SSE 4 6 2 3 1025.0 1025.0 0.0
30/03:00pm 13.0 12.0 7.5 69 2.7 N 2 4 1 2 1024.9 1024.9 0.0
30/02:30pm 13.0 11.7 7.7 70 2.6 N 4 6 2 3 1024.8 1024.8 0.0
30/02:00pm 12.9 11.1 8.0 72 2.4 NNW 7 9 4 5 1024.7 1024.7 0.0
30/01:30pm 12.8 10.2 7.9 72 2.4 NNW 11 13 6 7 1024.9 1024.9 0.0
30/01:00pm 12.8 10.6 7.9 72 2.4 N 9 11 5 6 1025.2 1025.2 0.0
30/12:30pm 12.7 10.1 7.8 72 2.4 N 11 15 6 8 1025.4 1025.4 0.0
30/12:00pm 12.5 11.3 8.0 74 2.2 NNE 4 6 2 3 1025.6 1025.6 0.0
30/11:30am 11.9 10.2 7.6 75 2.1 N 6 7 3 4 1025.5 1025.5 0.0
30/11:00am 11.3 9.5 7.0 75 2.0 N 6 9 3 5 1025.7 1025.7 0.0
30/10:30am 10.8 8.9 6.6 75 2.0 NNE 6 7 3 4 1025.8 1025.8 0.0
30/10:00am 10.5 9.0 6.6 77 1.8 NNE 4 6 2 3 1025.6 1025.6 0.0
30/09:30am 9.4 7.3 6.5 82 1.3 N 7 9 4 5 1025.1 1025.1 0.0
30/09:00am 9.1 7.0 6.7 85 1.1 N 7 11 4 6 1024.7 1024.7 0.0
30/08:30am 8.4 6.2 6.2 86 1.0 N 7 9 4 5 1024.4 1024.4 0.0
30/08:00am 7.9 5.9 6.2 89 0.8 N 6 11 3 6 1024.3 1024.3 0.0
30/07:30am 7.8 6.5 5.9 88 0.9 NW 2 6 1 3 1024.2 1024.2 0.0
30/07:00am 7.9 6.2 5.7 86 1.0 NW 4 6 2 3 1023.6 1023.6 0.0
30/06:30am 8.2 6.4 5.5 83 1.2 NW 4 7 2 4 1023.2 1023.2 0.0
30/06:00am 8.3 6.2 5.8 84 1.1 NW 6 11 3 6 1022.9 1022.9 0.0
30/05:30am 8.3 6.2 5.8 84 1.1 NW 6 9 3 5 1022.5 1022.5 0.0
30/05:00am 8.3 6.6 5.8 84 1.1 NW 4 6 2 3 1022.2 1022.2 0.0
30/04:30am 8.8 6.7 5.7 81 1.4 WNW 6 9 3 5 1022.1 1022.1 0.0
30/04:00am 9.3 7.3 6.2 81 1.4 WNW 6 9 3 5 1021.9 1021.9 0.0
30/03:30am 9.4 7.8 6.5 82 1.3 WNW 4 9 2 5 1021.8 1021.8 0.0
30/03:00am 9.5 7.4 5.7 77 1.7 NW 6 13 3 7 1021.8 1021.8 0.0
30/02:30am 9.7 7.2 4.7 71 2.2 WNW 7 13 4 7 1021.9 1021.9 0.0
30/02:00am 10.1 7.6 4.5 68 2.5 NW 7 15 4 8 1021.6 1021.6 0.0
30/01:30am 9.9 7.6 4.7 70 2.3 NW 6 13 3 7 1021.4 1021.4 0.0
30/01:00am 10.1 7.6 4.7 69 2.4 NW 7 15 4 8 1021.4 1021.4 0.0
30/12:30am 10.1 7.2 4.9 70 2.3 NW 9 17 5 9 1021.4 1021.4 0.0
30/12:00am 10.1 7.2 4.7 69 2.4 NW 9 20 5 11 1021.5 1021.5 0.0
 
Date/Time
EST
Temp
°C
App
Temp
°C
Dew
Point
°C
Rel
Hum
%
Delta-T
°C
Wind Press
QNH
hPa
Press
MSL
hPa
Rain since
9am
mm
Dir  Spd
km/h
Gust
km/h
Spd
kts
Gust
kts
29/11:30pm 9.9 7.0 4.7 70 2.3 NW 9 19 5 10 1021.3 1021.3 0.0
29/11:00pm 10.2 6.6 4.8 69 2.4 NNW 13 20 7 11 1021.1 1021.1 0.0
29/10:30pm 10.0 5.3 5.2 72 2.2 NNW 19 28 10 15 1021.2 1021.2 0.0
29/10:00pm 10.1 5.2 4.9 70 2.3 NNW 20 30 11 16 1021.0 1021.0 0.0
29/09:30pm 10.3 4.9 4.7 68 2.5 NNW 22 32 12 17 1021.2 1021.2 0.0
29/09:00pm 10.4 5.5 5.0 69 2.4 NNW 20 30 11 16 1021.3 1021.3 0.0
29/08:30pm 10.3 5.9 4.9 69 2.4 NNW 17 24 9 13 1021.3 1021.3 0.0
29/08:00pm 10.0 5.9 4.4 68 2.5 NNW 15 22 8 12 1021.1 1021.1 0.0
29/07:30pm 10.3 5.2 4.2 66 2.7 NNW 20 26 11 14 1021.0 1021.0 0.0
29/07:00pm 10.3 4.8 4.2 66 2.7 NNW 22 26 12 14 1020.7 1020.7 0.0
29/06:30pm 10.4 5.1 4.8 68 2.5 NNW 22 28 12 15 1020.4 1020.4 0.0
29/06:00pm 10.8 5.1 4.9 67 2.7 N 24 30 13 16 1020.6 1020.6 0.0
29/05:30pm 11.2 5.7 4.2 62 3.1 N 22 28 12 15 1020.8 1020.8 0.0
29/05:00pm 11.2 5.4 4.2 62 3.1 NNW 24 32 13 17 1020.8 1020.8 0.0
29/04:30pm 11.5 4.9 4.3 61 3.2 N 28 33 15 18 1020.7 1020.7 0.0
29/04:00pm 11.7 5.2 4.7 62 3.2 NNW 28 35 15 19 1020.7 1020.7 0.0
29/03:30pm 11.7 5.6 4.7 62 3.2 NNW 26 35 14 19 1020.9 1020.9 0.0
29/03:00pm 11.8 5.3 4.8 62 3.2 NNW 28 35 15 19 1021.0 1021.0 0.0
29/02:30pm 11.9 4.4 4.4 60 3.4 NNW 33 43 18 23 1020.6 1020.6 0.0
29/02:00pm 11.8 4.0 5.0 63 3.1 NNW 35 44 19 24 1020.9 1020.9 0.0
29/01:30pm 11.8 4.6 5.0 63 3.1 NNW 32 39 17 21 1021.5 1021.5 0.0
29/01:00pm 11.6 4.4 5.0 64 3.0 NNW 32 43 17 23 1021.7 1021.7 0.0

Other formats

Comma delimited format used in spreadsheet applications
http://www.bom.gov.au/fwo/IDV60801/IDV60801.94892.axf

JavaScript Object Notation format (JSON) in row-major order
http://www.bom.gov.au/fwo/IDV60801/IDV60801.94892.json

Data quality

Most of these data are generated automatically and are frequently updated. Quality checks on data are not normally performed. It is possible for incorrect values to appear. Refer to information at About Latest Weather Observations and please check the disclaimer before using these data.